createdAt,value
2023-03-29T00:00:29.028Z,98777.25
2023-03-29T00:01:01.444Z,98762.63
2023-03-29T00:01:37.115Z,98779.75
2023-03-29T00:02:09.788Z,98766.75
2023-03-29T00:02:48.804Z,98782.41
2023-03-29T00:03:25.029Z,98761.25
2023-03-29T00:03:57.998Z,98785.63
2023-03-29T00:04:31.603Z,98767.13
2023-03-29T00:05:06.929Z,98752.53
2023-03-29T00:05:41.358Z,98782.16
2023-03-29T00:06:15.473Z,98847.00
2023-03-29T00:06:50.652Z,98750.44
2023-03-29T00:07:23.891Z,98743.78
2023-03-29T00:08:02.072Z,98775.28
2023-03-29T00:08:34.432Z,98780.09
2023-03-29T00:09:07.053Z,98764.22
2023-03-29T00:09:42.694Z,98832.94
2023-03-29T00:10:14.885Z,98836.34
2023-03-29T00:10:49.987Z,98797.47
2023-03-29T00:11:24.833Z,98781.66
2023-03-29T00:11:57.010Z,98776.38
2023-03-29T00:12:29.305Z,98809.72
2023-03-29T00:13:04.538Z,98783.28
2023-03-29T00:13:36.950Z,98811.13
2023-03-29T00:14:09.181Z,98782.63
2023-03-29T00:14:44.124Z,98782.84
2023-03-29T00:15:16.595Z,98767.44
2023-03-29T00:15:48.784Z,98810.97
2023-03-29T00:16:23.883Z,98783.75
2023-03-29T00:16:56.115Z,98775.56
2023-03-29T00:17:28.517Z,98795.69
2023-03-29T00:18:06.089Z,98782.47
2023-03-29T00:18:38.331Z,98695.72
2023-03-29T00:19:10.610Z,98711.59
2023-03-29T00:19:46.968Z,98711.25
2023-03-29T00:20:19.640Z,98708.94
2023-03-29T00:20:55.760Z,98721.00
2023-03-29T00:21:30.545Z,98759.22
2023-03-29T00:22:02.792Z,98760.28
2023-03-29T00:22:35.030Z,98742.59
2023-03-29T00:23:09.792Z,98755.22
2023-03-29T00:23:41.986Z,98726.28
2023-03-29T00:24:14.152Z,98740.06
2023-03-29T00:24:49.722Z,98736.75
2023-03-29T00:25:21.944Z,98804.66
2023-03-29T00:25:55.510Z,98797.19
2023-03-29T00:26:30.272Z,98791.44
2023-03-29T00:27:02.825Z,98760.78
2023-03-29T00:27:35.524Z,98775.00
2023-03-29T00:28:07.701Z,98776.84
2023-03-29T00:28:42.724Z,98834.16
2023-03-29T00:29:14.917Z,98777.66
2023-03-29T00:29:47.202Z,98820.38
2023-03-29T00:30:22.218Z,98787.88
2023-03-29T00:30:54.745Z,98809.44
2023-03-29T00:31:27.648Z,98785.22
2023-03-29T00:32:02.602Z,98759.00
2023-03-29T00:32:34.946Z,98771.56
2023-03-29T00:33:09.857Z,98828.69
2023-03-29T00:33:46.002Z,98766.81
2023-03-29T00:34:18.394Z,98766.38
2023-03-29T00:34:50.996Z,98847.16
2023-03-29T00:35:25.956Z,98737.22
2023-03-29T00:35:58.623Z,98767.66
2023-03-29T00:36:30.844Z,98858.69
2023-03-29T00:37:08.977Z,98864.03
2023-03-29T00:37:41.501Z,98748.59
2023-03-29T00:38:13.725Z,98774.56
2023-03-29T00:38:46.203Z,98752.38
2023-03-29T00:39:21.104Z,98772.94
2023-03-29T00:39:53.734Z,98789.91
2023-03-29T00:40:26.262Z,98753.53
2023-03-29T00:41:01.618Z,98751.06
2023-03-29T00:41:34.111Z,98846.97
2023-03-29T00:42:06.433Z,98782.44
2023-03-29T00:42:42.013Z,98839.75
2023-03-29T00:43:15.503Z,98783.47
2023-03-29T00:43:59.286Z,98822.28
2023-03-29T00:45:09.965Z,98733.25
2023-03-29T00:45:42.619Z,98774.38
2023-03-29T00:46:15.553Z,98758.66
2023-03-29T00:46:50.445Z,98749.47
2023-03-29T00:47:28.084Z,98752.72
2023-03-29T00:48:03.145Z,98774.41
2023-03-29T00:48:40.849Z,98785.22
2023-03-29T00:49:14.335Z,98841.53
2023-03-29T00:49:46.828Z,98811.88
2023-03-29T00:50:26.450Z,98842.19
2023-03-29T00:51:04.212Z,98797.41
2023-03-29T00:51:40.169Z,98771.41
2023-03-29T00:52:15.091Z,98771.41
2023-03-29T00:52:55.080Z,98867.94
2023-03-29T00:53:30.879Z,98784.41
2023-03-29T00:54:07.115Z,98773.72
2023-03-29T00:54:43.456Z,98873.91
2023-03-29T00:55:20.181Z,98779.59
2023-03-29T00:55:58.886Z,98768.41
2023-03-29T00:56:37.278Z,98774.06
2023-03-29T00:57:14.436Z,98781.78
2023-03-29T00:57:47.595Z,98811.06
2023-03-29T00:58:25.223Z,98772.09
2023-03-29T00:59:05.331Z,98779.59
2023-03-29T00:59:39.973Z,98784.41
2023-03-29T01:00:18.295Z,98866.78
2023-03-29T01:00:58.769Z,98794.63
2023-03-29T01:01:38.282Z,98829.03
2023-03-29T01:02:11.647Z,98819.06
2023-03-29T01:02:51.199Z,98862.06
2023-03-29T01:03:28.219Z,98789.09
2023-03-29T01:04:18.151Z,98784.50
2023-03-29T01:04:57.522Z,98788.75
2023-03-29T01:05:32.701Z,98780.00
2023-03-29T01:06:10.535Z,98808.66
2023-03-29T01:06:46.185Z,98772.81
2023-03-29T01:07:22.352Z,98789.84
2023-03-29T01:08:03.181Z,98806.88
2023-03-29T01:08:40.997Z,98816.41
2023-03-29T01:09:18.929Z,98822.13
2023-03-29T01:09:56.167Z,98800.63
2023-03-29T01:10:34.573Z,98808.34
2023-03-29T01:11:14.321Z,98817.28
2023-03-29T01:11:51.146Z,98818.09
2023-03-29T01:12:27.722Z,98832.69
2023-03-29T01:13:07.797Z,98842.25
2023-03-29T01:13:44.028Z,98865.81
2023-03-29T01:14:23.931Z,98897.38
2023-03-29T01:15:05.010Z,98898.03
2023-03-29T01:15:39.640Z,98850.78
2023-03-29T01:16:19.006Z,98856.63
2023-03-29T01:16:52.161Z,98834.25
2023-03-29T01:17:26.144Z,98876.69
2023-03-29T01:18:02.157Z,98858.97
2023-03-29T01:18:35.034Z,98848.19
2023-03-29T01:19:16.724Z,98846.94
2023-03-29T01:19:58.391Z,98904.28
2023-03-29T01:20:49.257Z,98869.19
2023-03-29T01:21:25.673Z,98841.59
2023-03-29T01:22:13.726Z,98858.84
2023-03-29T01:23:03.644Z,98853.44
2023-03-29T01:24:07.278Z,98836.75
2023-03-29T01:24:52.013Z,98843.66
2023-03-29T01:25:38.489Z,98829.19
2023-03-29T01:26:19.870Z,98849.88
2023-03-29T01:27:03.528Z,98810.63
2023-03-29T01:27:50.375Z,98852.53
2023-03-29T01:28:26.872Z,98853.69
2023-03-29T01:29:06.968Z,98889.09
2023-03-29T01:29:45.799Z,98862.28
2023-03-29T01:30:23.728Z,98812.22
2023-03-29T01:31:06.203Z,98830.50
2023-03-29T01:31:42.211Z,98852.47
2023-03-29T01:32:22.481Z,98911.41
2023-03-29T01:32:57.201Z,98905.97
2023-03-29T01:33:39.577Z,98916.75
2023-03-29T01:34:16.914Z,98853.78
2023-03-29T01:34:56.807Z,98853.34
2023-03-29T01:35:37.301Z,98849.72
2023-03-29T01:36:12.717Z,98889.81
2023-03-29T01:36:52.184Z,98908.75
2023-03-29T01:37:30.124Z,98859.63
2023-03-29T01:38:08.870Z,98841.38
2023-03-29T01:38:49.096Z,98897.81
2023-03-29T01:39:22.218Z,98878.53
2023-03-29T01:39:54.605Z,98872.56
2023-03-29T01:40:31.398Z,98860.38
2023-03-29T01:41:04.174Z,98882.25
2023-03-29T01:41:45.355Z,98868.38
2023-03-29T01:42:33.912Z,98855.97
2023-03-29T01:43:16.585Z,98869.78
2023-03-29T01:43:56.535Z,98896.56
2023-03-29T01:44:35.907Z,98889.66
2023-03-29T01:45:17.329Z,98899.00
2023-03-29T01:45:55.831Z,98855.66
2023-03-29T01:46:36.394Z,98858.91
2023-03-29T01:47:15.148Z,98871.91
2023-03-29T01:47:54.130Z,98863.38
2023-03-29T01:48:33.752Z,98877.63
2023-03-29T01:49:11.539Z,98905.47
2023-03-29T01:49:53.195Z,98901.56
2023-03-29T01:50:40.065Z,98915.63
2023-03-29T01:51:17.596Z,98902.06
2023-03-29T01:51:55.350Z,98903.47
2023-03-29T01:52:36.460Z,98879.09
2023-03-29T01:53:12.839Z,98890.25
2023-03-29T01:53:53.574Z,98882.09
2023-03-29T01:54:32.629Z,98937.19
2023-03-29T01:55:10.445Z,98905.22
2023-03-29T01:55:51.498Z,98927.63
2023-03-29T01:56:28.407Z,98917.41
2023-03-29T01:57:06.194Z,98936.38
2023-03-29T01:57:42.190Z,98902.44
2023-03-29T01:58:18.361Z,98893.28
2023-03-29T01:58:57.988Z,98882.47
2023-03-29T01:59:34.016Z,98901.75
2023-03-29T02:00:10.475Z,98955.88
2023-03-29T02:00:47.009Z,98916.91
2023-03-29T02:01:23.296Z,98883.00
2023-03-29T02:02:00.007Z,98894.38
2023-03-29T02:02:36.085Z,98904.13
2023-03-29T02:03:09.940Z,98912.63
2023-03-29T02:03:50.064Z,98891.84
2023-03-29T02:04:26.821Z,98909.34
2023-03-29T02:05:00.332Z,98916.44
2023-03-29T02:05:36.438Z,98906.47
2023-03-29T02:06:11.415Z,98903.63
2023-03-29T02:06:47.477Z,98915.78
2023-03-29T02:07:24.884Z,98918.16
2023-03-29T02:08:02.827Z,98894.22
2023-03-29T02:08:38.763Z,98910.75
2023-03-29T02:09:11.860Z,98904.81
2023-03-29T02:09:48.808Z,98899.13
2023-03-29T02:10:23.437Z,98949.78
2023-03-29T02:10:55.711Z,98946.69
2023-03-29T02:11:30.726Z,98917.88
2023-03-29T02:12:04.475Z,98914.41
2023-03-29T02:12:38.570Z,98929.00
2023-03-29T02:13:13.535Z,98938.56
2023-03-29T02:13:48.363Z,98971.91
2023-03-29T02:14:21.414Z,98921.06
2023-03-29T02:14:56.802Z,98970.72
2023-03-29T02:15:29.053Z,98928.19
2023-03-29T02:16:03.359Z,98943.28
2023-03-29T02:16:41.779Z,98969.81
2023-03-29T02:17:18.432Z,99002.00
2023-03-29T02:17:51.536Z,98940.03
2023-03-29T02:18:26.506Z,98929.47
2023-03-29T02:18:59.484Z,98958.31
2023-03-29T02:19:32.756Z,98952.22
2023-03-29T02:20:14.840Z,98938.03
2023-03-29T02:20:52.142Z,98910.66
2023-03-29T02:21:28.166Z,98968.13
2023-03-29T02:22:06.803Z,98936.66
2023-03-29T02:22:48.333Z,98928.50
2023-03-29T02:23:24.705Z,98963.22
2023-03-29T02:24:02.316Z,98950.44
2023-03-29T02:24:37.279Z,98972.91
2023-03-29T02:25:10.352Z,98988.63
2023-03-29T02:25:48.557Z,98955.69
2023-03-29T02:26:22.622Z,98971.13
2023-03-29T02:26:54.836Z,98992.06
2023-03-29T02:27:30.526Z,98961.38
2023-03-29T02:28:03.505Z,98946.34
2023-03-29T02:28:39.071Z,98956.69
2023-03-29T02:29:14.536Z,98956.34
2023-03-29T02:29:48.029Z,98959.34
2023-03-29T02:30:24.108Z,98972.34
2023-03-29T02:31:03.575Z,98978.56
2023-03-29T02:31:43.927Z,98971.53
2023-03-29T02:32:20.650Z,98964.63
2023-03-29T02:32:59.681Z,98971.38
2023-03-29T02:33:42.307Z,98968.38
2023-03-29T02:34:21.339Z,98937.84
2023-03-29T02:34:58.930Z,98961.38
2023-03-29T02:35:39.347Z,98985.78
2023-03-29T02:36:17.975Z,98973.38
2023-03-29T02:36:53.853Z,99028.41
2023-03-29T02:37:31.776Z,99001.19
2023-03-29T02:38:06.687Z,98949.13
2023-03-29T02:38:39.276Z,98976.16
2023-03-29T02:39:16.572Z,98973.06
2023-03-29T02:39:50.274Z,99005.97
2023-03-29T02:40:24.260Z,98999.88
2023-03-29T02:41:01.320Z,98978.72
2023-03-29T02:41:35.043Z,98973.44
2023-03-29T02:42:08.689Z,98978.16
2023-03-29T02:42:45.638Z,98981.59
2023-03-29T02:43:18.522Z,98981.59
2023-03-29T02:43:51.583Z,98979.97
2023-03-29T02:44:32.493Z,99001.69
2023-03-29T02:45:06.835Z,98966.53
2023-03-29T02:45:41.314Z,98995.59
2023-03-29T02:46:17.573Z,98996.66
2023-03-29T02:46:53.534Z,98969.31
2023-03-29T02:47:32.304Z,98974.84
2023-03-29T02:48:11.208Z,98990.91
2023-03-29T02:48:46.631Z,98983.34
2023-03-29T02:49:19.070Z,98970.38
2023-03-29T02:49:53.945Z,98965.50
2023-03-29T02:50:32.166Z,98998.19
2023-03-29T02:51:17.440Z,98960.22
2023-03-29T02:51:54.560Z,98969.97
2023-03-29T02:52:36.887Z,99025.50
2023-03-29T02:53:16.451Z,98974.84
2023-03-29T02:53:53.565Z,98954.25
2023-03-29T02:54:31.733Z,99025.22
2023-03-29T02:55:08.730Z,99003.47
2023-03-29T02:55:41.578Z,98968.72
2023-03-29T02:56:16.922Z,98977.22
2023-03-29T02:56:55.274Z,98990.69
2023-03-29T02:57:28.912Z,98985.63
2023-03-29T02:58:08.448Z,98999.19
2023-03-29T02:58:41.680Z,98993.09
2023-03-29T02:59:14.494Z,98986.88
2023-03-29T02:59:52.070Z,99002.56
2023-03-29T03:00:24.590Z,98991.34
2023-03-29T03:00:59.107Z,98979.34
2023-03-29T03:01:33.947Z,98985.44
2023-03-29T03:02:07.464Z,98948.91
2023-03-29T03:02:39.860Z,98954.56
2023-03-29T03:03:18.387Z,98941.94
2023-03-29T03:03:54.084Z,98973.25
2023-03-29T03:04:27.191Z,98984.00
2023-03-29T03:05:01.963Z,98971.13
2023-03-29T03:05:34.561Z,99005.72
2023-03-29T03:06:07.299Z,98993.34
2023-03-29T03:06:43.423Z,98961.81
2023-03-29T03:07:15.889Z,98982.75
2023-03-29T03:07:48.095Z,98971.13
2023-03-29T03:08:23.502Z,98974.75
2023-03-29T03:08:55.929Z,98979.81
2023-03-29T03:09:28.499Z,98939.97
2023-03-29T03:10:00.741Z,98969.41
2023-03-29T03:10:35.850Z,98947.00
2023-03-29T03:11:09.523Z,98949.44
2023-03-29T03:11:41.953Z,98998.03
2023-03-29T03:12:16.964Z,98976.88
2023-03-29T03:12:49.137Z,98972.63
2023-03-29T03:13:21.553Z,99031.00
2023-03-29T03:13:56.582Z,99005.97
2023-03-29T03:14:29.632Z,98974.91
2023-03-29T03:15:07.462Z,98972.91
2023-03-29T03:15:49.246Z,98974.75
2023-03-29T03:16:22.293Z,98963.00
2023-03-29T03:16:55.368Z,99003.25
2023-03-29T03:17:30.369Z,99007.28
2023-03-29T03:18:03.705Z,98993.84
2023-03-29T03:18:36.270Z,98976.81
2023-03-29T03:19:11.243Z,98997.34
2023-03-29T03:19:43.565Z,98948.16
2023-03-29T03:20:16.351Z,98962.19
2023-03-29T03:20:59.514Z,98962.34
2023-03-29T03:21:31.930Z,98958.06
2023-03-29T03:22:06.219Z,98970.06
2023-03-29T03:22:39.448Z,98995.69
2023-03-29T03:23:14.266Z,98985.91
2023-03-29T03:23:47.474Z,98973.78
2023-03-29T03:24:22.561Z,98968.28
2023-03-29T03:24:54.881Z,98995.53
2023-03-29T03:25:28.904Z,99022.59
2023-03-29T03:26:03.685Z,98976.44
2023-03-29T03:26:38.414Z,98960.84
2023-03-29T03:27:11.388Z,98978.13
2023-03-29T03:27:46.444Z,99004.31
2023-03-29T03:28:18.805Z,99008.22
2023-03-29T03:28:51.386Z,99015.16
2023-03-29T03:29:46.338Z,98978.19
2023-03-29T03:30:21.202Z,98983.84
2023-03-29T03:31:19.797Z,98988.34
2023-03-29T03:32:18.746Z,99047.66
2023-03-29T03:33:18.331Z,99021.28
2023-03-29T03:33:50.550Z,99001.09
2023-03-29T03:34:45.312Z,98971.50
2023-03-29T03:35:20.310Z,99021.88
2023-03-29T03:35:52.852Z,99006.84
2023-03-29T03:36:29.284Z,99007.63
2023-03-29T03:37:03.004Z,98998.09
2023-03-29T03:37:41.199Z,99001.91
2023-03-29T03:38:14.459Z,99001.69
2023-03-29T03:38:47.899Z,99054.94
2023-03-29T03:39:23.353Z,99036.44
2023-03-29T03:39:55.949Z,99050.88
2023-03-29T03:40:32.426Z,99005.94
2023-03-29T03:41:06.176Z,99048.06
2023-03-29T03:41:39.766Z,98995.81
2023-03-29T03:42:14.685Z,99010.66
2023-03-29T03:42:49.730Z,99025.25
2023-03-29T03:43:22.260Z,99013.50
2023-03-29T03:43:58.153Z,99067.16
2023-03-29T03:44:30.699Z,98997.19
2023-03-29T03:45:27.246Z,98996.03
2023-03-29T03:46:06.214Z,98998.91
2023-03-29T03:46:38.404Z,99027.53
2023-03-29T03:47:14.824Z,98994.03
2023-03-29T03:47:48.274Z,98998.09
2023-03-29T03:48:46.418Z,99029.34
2023-03-29T03:49:25.572Z,99026.34
2023-03-29T03:49:58.435Z,99007.47
2023-03-29T03:50:34.203Z,99006.66
2023-03-29T03:51:07.076Z,99020.03
2023-03-29T03:51:42.128Z,99025.09
2023-03-29T03:52:17.607Z,99087.69
2023-03-29T03:52:50.103Z,99046.88
2023-03-29T03:53:26.437Z,99030.44
2023-03-29T03:54:18.860Z,99018.91
2023-03-29T03:55:16.569Z,99041.25
2023-03-29T03:56:09.328Z,99075.41
2023-03-29T03:56:59.192Z,99037.03
2023-03-29T03:57:44.063Z,99010.22
2023-03-29T03:58:20.939Z,99079.06
2023-03-29T03:58:55.833Z,99028.22
2023-03-29T03:59:28.947Z,99022.00
2023-03-29T04:00:21.455Z,99080.13
2023-03-29T04:01:22.116Z,99072.19
2023-03-29T04:02:05.088Z,99026.88
2023-03-29T04:02:37.946Z,99040.91
2023-03-29T04:03:12.939Z,99082.16
2023-03-29T04:03:46.614Z,99046.31
2023-03-29T04:04:21.270Z,99048.78
2023-03-29T04:05:20.120Z,99009.19
2023-03-29T04:05:52.480Z,99028.06
2023-03-29T04:06:26.447Z,99013.00
2023-03-29T04:07:36.572Z,99060.97
2023-03-29T04:08:30.567Z,99066.19
2023-03-29T04:09:22.892Z,99066.19
2023-03-29T04:10:06.489Z,99055.25
2023-03-29T04:10:42.195Z,99058.47
2023-03-29T04:11:21.630Z,99056.25
2023-03-29T04:11:54.251Z,99095.91
2023-03-29T04:12:27.204Z,99082.09
2023-03-29T04:13:02.938Z,99064.34
2023-03-29T04:13:36.027Z,99066.41
2023-03-29T04:14:32.324Z,99070.28
2023-03-29T04:15:20.905Z,99104.25
2023-03-29T04:16:09.735Z,99074.72
2023-03-29T04:16:44.583Z,99085.94
2023-03-29T04:17:45.234Z,99067.69
2023-03-29T04:18:31.114Z,99073.25
2023-03-29T04:19:04.900Z,99086.41
2023-03-29T04:19:39.710Z,99064.66
2023-03-29T04:20:12.841Z,99054.72
2023-03-29T04:20:47.378Z,99087.59
2023-03-29T04:21:25.848Z,99061.09
2023-03-29T04:21:58.359Z,99085.13
2023-03-29T04:22:30.705Z,99052.59
2023-03-29T04:23:07.054Z,99054.22
2023-03-29T04:23:43.178Z,99029.41
2023-03-29T04:24:16.273Z,99034.69
2023-03-29T04:24:58.270Z,99058.47
2023-03-29T04:25:48.890Z,99089.22
2023-03-29T04:26:41.627Z,99032.03
2023-03-29T04:27:20.886Z,99040.84
2023-03-29T04:27:56.227Z,99066.25
2023-03-29T04:28:37.663Z,99049.97
2023-03-29T04:29:14.899Z,99140.78
2023-03-29T04:29:55.075Z,99013.94
2023-03-29T04:30:48.388Z,99139.34
2023-03-29T04:31:28.111Z,99093.69
2023-03-29T04:32:28.385Z,99059.19
2023-03-29T04:33:07.461Z,99104.09
2023-03-29T04:33:41.447Z,99103.47
2023-03-29T04:34:17.099Z,99106.13
2023-03-29T04:34:50.951Z,99085.16
2023-03-29T04:35:23.519Z,99059.63
2023-03-29T04:35:58.441Z,99098.00
2023-03-29T04:36:31.131Z,99128.03
2023-03-29T04:37:10.190Z,99097.34
2023-03-29T04:37:45.337Z,99099.38
2023-03-29T04:38:23.494Z,99109.94
2023-03-29T04:39:01.563Z,99110.41
2023-03-29T04:39:34.714Z,99094.09
2023-03-29T04:40:14.448Z,99109.38
2023-03-29T04:41:06.664Z,99041.78
2023-03-29T04:41:59.208Z,99057.63
2023-03-29T04:42:36.265Z,99078.53
2023-03-29T04:43:08.671Z,99058.00
2023-03-29T04:43:48.092Z,99083.97
2023-03-29T04:44:33.780Z,99144.91
2023-03-29T04:45:11.126Z,99088.81
2023-03-29T04:46:02.360Z,99087.00
2023-03-29T04:46:56.069Z,99105.72
2023-03-29T04:47:49.722Z,99089.06
2023-03-29T04:48:26.799Z,99116.06
2023-03-29T04:48:59.018Z,99058.91
2023-03-29T04:49:40.029Z,99151.22
2023-03-29T04:50:19.681Z,99082.34
2023-03-29T04:50:54.335Z,99164.47
2023-03-29T04:51:27.693Z,99111.84
2023-03-29T04:52:02.716Z,99083.53
2023-03-29T04:52:36.690Z,99072.38
2023-03-29T04:53:13.885Z,99094.97
2023-03-29T04:53:49.268Z,99073.63
2023-03-29T04:54:21.840Z,99147.19
2023-03-29T04:55:26.197Z,99091.97
2023-03-29T04:56:08.224Z,99101.09
2023-03-29T04:57:03.031Z,99132.81
2023-03-29T04:57:55.847Z,99125.50
2023-03-29T04:58:44.372Z,99124.25
2023-03-29T04:59:17.356Z,99186.63
2023-03-29T04:59:49.543Z,99043.00
2023-03-29T05:00:50.082Z,99074.31
2023-03-29T05:01:29.213Z,99198.66
2023-03-29T05:02:05.123Z,99122.69
2023-03-29T05:02:40.051Z,99161.84
2023-03-29T05:03:15.488Z,99162.88
2023-03-29T05:04:08.244Z,99163.69
2023-03-29T05:04:48.521Z,99133.03
2023-03-29T05:05:22.850Z,99084.88
2023-03-29T05:05:58.391Z,99098.72
2023-03-29T05:06:31.256Z,99112.75
2023-03-29T05:07:04.670Z,99083.88
2023-03-29T05:07:40.259Z,99175.44
2023-03-29T05:08:12.732Z,99120.53
2023-03-29T05:09:05.063Z,99091.72
2023-03-29T05:09:50.158Z,99119.59
2023-03-29T05:10:23.450Z,99151.91
2023-03-29T05:10:58.313Z,99085.06
2023-03-29T05:11:32.588Z,99066.34
2023-03-29T05:12:05.634Z,99096.19
2023-03-29T05:12:54.388Z,99124.69
2023-03-29T05:13:28.145Z,99144.16
2023-03-29T05:14:03.420Z,99129.91
2023-03-29T05:14:41.230Z,99164.47
2023-03-29T05:15:13.658Z,99109.94
2023-03-29T05:15:48.500Z,99165.88
2023-03-29T05:16:20.937Z,99140.06
2023-03-29T05:16:55.280Z,99186.00
2023-03-29T05:17:30.203Z,99118.97
2023-03-29T05:18:07.811Z,99146.66
2023-03-29T05:18:45.333Z,99111.28
2023-03-29T05:19:17.999Z,99136.69
2023-03-29T05:19:53.128Z,99136.88
2023-03-29T05:20:28.697Z,99117.75
2023-03-29T05:21:01.910Z,99099.06
2023-03-29T05:21:34.738Z,99082.22
2023-03-29T05:22:12.360Z,99109.38
2023-03-29T05:22:44.594Z,99087.69
2023-03-29T05:23:23.913Z,99086.06
2023-03-29T05:24:17.358Z,99248.19
2023-03-29T05:25:13.574Z,99129.53
2023-03-29T05:25:50.649Z,99129.78
2023-03-29T05:26:23.117Z,99140.53
2023-03-29T05:26:58.289Z,99139.28
2023-03-29T05:27:35.051Z,99167.13
2023-03-29T05:28:13.856Z,99150.84
2023-03-29T05:28:46.202Z,99125.50
2023-03-29T05:29:21.179Z,99145.59
2023-03-29T05:29:59.334Z,99172.03
2023-03-29T05:30:47.754Z,99167.97
2023-03-29T05:31:25.168Z,99139.72
2023-03-29T05:32:00.137Z,99097.47
2023-03-29T05:32:35.511Z,99145.00
2023-03-29T05:33:08.392Z,99116.97
2023-03-29T05:33:45.927Z,99142.97
2023-03-29T05:34:18.740Z,99117.13
2023-03-29T05:34:55.539Z,99092.97
2023-03-29T05:35:30.447Z,99099.66
2023-03-29T05:36:06.211Z,99139.09
2023-03-29T05:36:39.342Z,99191.91
2023-03-29T05:37:14.369Z,99153.91
2023-03-29T05:38:00.991Z,99105.97
2023-03-29T05:38:37.185Z,99136.06
2023-03-29T05:39:11.046Z,99127.53
2023-03-29T05:39:44.023Z,99120.22
2023-03-29T05:40:19.110Z,99127.34
2023-03-29T05:41:10.978Z,99160.03
2023-03-29T05:42:04.572Z,99154.53
2023-03-29T05:42:40.190Z,99126.34
2023-03-29T05:43:14.483Z,99156.81
2023-03-29T05:43:49.372Z,99134.22
2023-03-29T05:44:21.929Z,99144.72
2023-03-29T05:45:02.016Z,99123.59
2023-03-29T05:45:34.644Z,99171.16
2023-03-29T05:46:07.839Z,99144.31
2023-03-29T05:46:44.690Z,99118.06
2023-03-29T05:47:21.295Z,99117.47
2023-03-29T05:47:53.509Z,99151.00
2023-03-29T05:48:28.973Z,99160.72
2023-03-29T05:49:04.377Z,99109.31
2023-03-29T05:49:58.894Z,99216.69
2023-03-29T05:50:32.112Z,99135.44
2023-03-29T05:51:08.528Z,99112.91
2023-03-29T05:51:42.258Z,99127.13
2023-03-29T05:52:18.772Z,99155.94
2023-03-29T05:52:51.809Z,99152.47
2023-03-29T05:53:25.684Z,99143.94
2023-03-29T05:54:01.624Z,99188.03
2023-03-29T05:54:33.917Z,99187.22
2023-03-29T05:55:08.492Z,99189.44
2023-03-29T05:55:44.078Z,99135.59
2023-03-29T05:56:19.288Z,99143.97
2023-03-29T05:56:54.229Z,99147.81
2023-03-29T05:57:26.900Z,99132.16
2023-03-29T05:58:01.743Z,99200.66
2023-03-29T05:58:38.402Z,99179.25
2023-03-29T05:59:10.635Z,99209.72
2023-03-29T05:59:45.862Z,99084.63
2023-03-29T06:00:23.753Z,99148.25
2023-03-29T06:01:05.346Z,99147.19
2023-03-29T06:01:57.881Z,99130.34
2023-03-29T06:02:33.709Z,99149.59
2023-03-29T06:03:17.526Z,99142.09
2023-03-29T06:03:56.421Z,99169.31
2023-03-29T06:04:37.527Z,99181.72
2023-03-29T06:05:30.545Z,99168.94
2023-03-29T06:06:05.502Z,99121.41
2023-03-29T06:06:39.107Z,99147.19
2023-03-29T06:07:15.047Z,99144.53
2023-03-29T06:07:50.570Z,99152.03
2023-03-29T06:08:46.563Z,99180.50
2023-03-29T06:09:39.958Z,99183.94
2023-03-29T06:10:15.841Z,99145.34
2023-03-29T06:11:00.296Z,99169.31
2023-03-29T06:11:56.622Z,99182.59
2023-03-29T06:12:49.667Z,99197.00
2023-03-29T06:13:26.431Z,99206.13
2023-03-29T06:13:58.886Z,99160.00
2023-03-29T06:14:31.570Z,99156.31
2023-03-29T06:15:18.905Z,99187.63
2023-03-29T06:15:54.620Z,99146.53
2023-03-29T06:16:27.185Z,99165.44
2023-03-29T06:17:02.052Z,99153.03
2023-03-29T06:17:34.728Z,99204.44
2023-03-29T06:18:07.147Z,99177.81
2023-03-29T06:18:43.479Z,99156.66
2023-03-29T06:19:16.189Z,99151.19
2023-03-29T06:19:53.214Z,99156.66
2023-03-29T06:20:31.293Z,99156.09
2023-03-29T06:21:09.530Z,99158.72
2023-03-29T06:21:44.525Z,99198.19
2023-03-29T06:22:20.386Z,99210.97
2023-03-29T06:22:53.669Z,99185.38
2023-03-29T06:23:28.459Z,99175.84
2023-03-29T06:24:00.779Z,99180.09
2023-03-29T06:24:37.871Z,99166.88
2023-03-29T06:25:19.929Z,99191.84
2023-03-29T06:25:55.416Z,99182.50
2023-03-29T06:26:28.010Z,99215.00
2023-03-29T06:27:03.052Z,99203.00
2023-03-29T06:27:36.628Z,99200.50
2023-03-29T06:28:12.109Z,99195.84
2023-03-29T06:28:45.211Z,99181.19
2023-03-29T06:29:17.986Z,99163.31
2023-03-29T06:29:54.562Z,99166.56
2023-03-29T06:30:27.324Z,99182.81
2023-03-29T06:31:05.505Z,99219.63
2023-03-29T06:31:43.284Z,99207.81
2023-03-29T06:32:31.285Z,99246.66
2023-03-29T06:33:20.690Z,99163.16
2023-03-29T06:34:10.927Z,99157.47
2023-03-29T06:35:07.078Z,99209.06
2023-03-29T06:35:48.730Z,99219.88
2023-03-29T06:36:24.885Z,99226.38
2023-03-29T06:37:00.140Z,99215.63
2023-03-29T06:37:32.894Z,99197.50
2023-03-29T06:38:28.714Z,99181.81
2023-03-29T06:39:01.314Z,99196.66
2023-03-29T06:40:02.690Z,99209.66
2023-03-29T06:40:44.908Z,99244.22
2023-03-29T06:41:19.881Z,99190.34
2023-03-29T06:42:21.980Z,99245.41
2023-03-29T06:43:15.776Z,99244.97
2023-03-29T06:44:10.881Z,99225.47
2023-03-29T06:45:12.535Z,99200.28
2023-03-29T06:45:45.006Z,99217.59
2023-03-29T06:46:37.655Z,99245.22
2023-03-29T06:47:13.310Z,99226.31
2023-03-29T06:47:45.612Z,99223.50
2023-03-29T06:48:20.620Z,99273.88
2023-03-29T06:48:53.489Z,99231.00
2023-03-29T06:49:29.571Z,99233.66
2023-03-29T06:50:14.855Z,99299.72
2023-03-29T06:50:56.608Z,99239.31
2023-03-29T06:51:31.644Z,99241.53
2023-03-29T06:52:04.858Z,99216.16
2023-03-29T06:52:39.856Z,99229.19
2023-03-29T06:53:12.144Z,99221.72
2023-03-29T06:53:47.993Z,99250.34
2023-03-29T06:54:21.602Z,99214.38
2023-03-29T06:55:07.806Z,99235.94
2023-03-29T06:55:41.608Z,99218.25
2023-03-29T06:56:52.650Z,99240.59
2023-03-29T06:57:27.658Z,99275.31
2023-03-29T06:58:04.406Z,99255.78
2023-03-29T06:58:36.997Z,99247.03
2023-03-29T06:59:19.979Z,99204.59
2023-03-29T07:00:00.498Z,99246.06
2023-03-29T07:01:04.185Z,99263.53
2023-03-29T07:02:03.036Z,99242.00
2023-03-29T07:03:00.936Z,99256.19
2023-03-29T07:03:36.546Z,99262.66
2023-03-29T07:04:09.584Z,99255.56
2023-03-29T07:05:11.841Z,99272.88
2023-03-29T07:05:52.303Z,99261.06
2023-03-29T07:06:28.815Z,99267.56
2023-03-29T07:07:06.121Z,99262.84
2023-03-29T07:07:55.595Z,99242.50
2023-03-29T07:08:59.917Z,99245.13
2023-03-29T07:09:54.339Z,99236.97
2023-03-29T07:10:50.283Z,99238.88
2023-03-29T07:11:42.704Z,99256.97
2023-03-29T07:12:29.721Z,99254.53
2023-03-29T07:13:06.286Z,99253.69
2023-03-29T07:13:42.741Z,99291.72
2023-03-29T07:14:17.944Z,99289.91
2023-03-29T07:14:53.756Z,99250.00
2023-03-29T07:15:28.124Z,99266.47
2023-03-29T07:16:16.809Z,99240.47
2023-03-29T07:17:11.217Z,99308.41
2023-03-29T07:17:48.680Z,99287.03
2023-03-29T07:18:21.304Z,99247.63
2023-03-29T07:18:56.100Z,99289.28
2023-03-29T07:19:47.019Z,99307.41
2023-03-29T07:20:22.859Z,99291.53
2023-03-29T07:21:06.857Z,99329.31
2023-03-29T07:21:41.619Z,99327.09
2023-03-29T07:22:14.263Z,99310.59
2023-03-29T07:22:59.427Z,99265.53
2023-03-29T07:23:32.184Z,99286.69
2023-03-29T07:24:07.341Z,99285.25
2023-03-29T07:24:41.545Z,99285.63
2023-03-29T07:25:18.887Z,99288.69
2023-03-29T07:25:51.437Z,99312.25
2023-03-29T07:26:30.192Z,99276.44
2023-03-29T07:27:04.927Z,99317.72
2023-03-29T07:27:42.930Z,99266.91